Time;durP1;ratioP1;P1;durP2;ratioP2;P2;SDS_P1;SDS_P2;PMS_P1;PMS_P2;Temp;Humidity;BMP_temperature;BMP_pressure;BME280_temperature;BME280_humidity;BME280_pressure;Samples;Min_cycle;Max_cycle;Signal;HPM_P1;HPM_P2
2023/10/12 00:01:25;;;;;;;12.40;6.97;;;14.60;99.90;;;;;;5135328;27;20301;-67
2023/10/12 00:03:58;;;;;;;12.63;6.47;;;14.40;99.90;;;;;;5135439;27;20252;-66
2023/10/12 00:06:26;;;;;;;11.93;6.20;;;14.40;99.90;;;;;;5135413;27;20561;-66
2023/10/12 00:08:54;;;;;;;9.60;6.43;;;14.40;99.90;;;;;;5135307;27;20203;-66
2023/10/12 00:11:21;;;;;;;14.53;6.07;;;14.50;99.90;;;;;;5135055;27;20218;-66
2023/10/12 00:13:51;;;;;;;14.70;6.00;;;14.50;99.90;;;;;;5135006;27;20554;-66
2023/10/12 00:16:19;;;;;;;11.97;6.37;;;14.50;99.90;;;;;;5135169;27;20223;-67
2023/10/12 00:18:49;;;;;;;9.93;6.03;;;14.50;99.90;;;;;;5134993;27;20214;-67
2023/10/12 00:21:25;;;;;;;12.17;6.03;;;14.50;99.90;;;;;;5134857;27;20194;-67
2023/10/12 00:23:55;;;;;;;10.70;5.90;;;14.50;99.90;;;;;;5134903;27;20191;-66
2023/10/12 00:26:22;;;;;;;13.20;5.70;;;14.40;99.90;;;;;;5135025;27;20199;-67
2023/10/12 00:28:51;;;;;;;8.37;6.20;;;14.20;99.90;;;;;;5134946;27;20199;-67
2023/10/12 00:31:19;;;;;;;11.73;5.67;;;14.10;99.90;;;;;;5134744;27;20195;-67
2023/10/12 00:33:49;;;;;;;12.30;7.07;;;14.10;99.90;;;;;;5134764;27;20702;-67
2023/10/12 00:36:21;;;;;;;10.97;6.50;;;14.10;99.90;;;;;;5134694;27;20290;-67
2023/10/12 00:38:48;;;;;;;9.53;6.00;;;14.00;99.90;;;;;;5133848;27;20230;-66
2023/10/12 00:41:17;;;;;;;10.73;5.97;;;14.00;99.90;;;;;;5134769;27;20199;-66
2023/10/12 00:43:57;;;;;;;14.43;6.77;;;13.90;99.90;;;;;;5134654;27;20198;-66
2023/10/12 00:46:39;;;;;;;12.50;6.17;;;13.90;99.90;;;;;;5134622;27;20199;-66
2023/10/12 00:49:20;;;;;;;8.90;5.67;;;13.70;99.90;;;;;;5134360;27;20194;-66
2023/10/12 00:51:51;;;;;;;10.07;6.23;;;13.70;99.90;;;;;;5134325;27;20539;-67
2023/10/12 00:54:26;;;;;;;11.73;6.50;;;13.80;99.90;;;;;;5134538;27;20222;-67
2023/10/12 00:56:58;;;;;;;11.70;6.27;;;13.80;99.90;;;;;;5134521;27;20475;-67
2023/10/12 00:59:27;;;;;;;13.17;6.40;;;13.80;99.90;;;;;;5134186;27;20279;-67
2023/10/12 01:01:54;;;;;;;15.30;5.50;;;13.70;99.90;;;;;;5134122;27;20202;-67
2023/10/12 01:04:22;;;;;;;11.67;5.43;;;13.70;99.90;;;;;;5134328;27;20252;-66
2023/10/12 01:06:49;;;;;;;9.23;6.13;;;13.90;99.90;;;;;;5134065;27;20195;-67
2023/10/12 01:09:22;;;;;;;14.57;6.57;;;14.00;99.90;;;;;;5133975;27;20758;-66
2023/10/12 01:11:57;;;;;;;15.50;5.80;;;14.00;99.90;;;;;;5134118;27;20256;-66
2023/10/12 01:14:28;;;;;;;10.50;6.00;;;14.00;99.90;;;;;;5134150;27;20214;-66
2023/10/12 01:16:58;;;;;;;11.30;5.77;;;14.00;99.90;;;;;;5134123;27;20198;-67
2023/10/12 01:19:30;;;;;;;14.80;5.80;;;14.00;99.90;;;;;;5133937;27;20250;-66
2023/10/12 01:22:04;;;;;;;9.40;6.50;;;14.00;99.90;;;;;;5133879;27;20217;-66
2023/10/12 01:24:31;;;;;;;9.47;6.13;;;13.90;99.90;;;;;;5133843;27;20191;-66
2023/10/12 01:26:59;;;;;;;9.80;5.73;;;13.90;99.90;;;;;;5134065;27;20199;-66
2023/10/12 01:29:26;;;;;;;15.07;6.20;;;14.10;99.90;;;;;;5133945;27;20209;-66
2023/10/12 01:32:20;;;;;;;14.23;6.27;;;14.10;99.90;;;;;;5133925;27;20566;-66
2023/10/12 01:34:51;;;;;;;14.17;6.20;;;14.00;99.90;;;;;;5133376;27;20315;-66
2023/10/12 01:37:22;;;;;;;8.83;5.97;;;14.30;99.90;;;;;;5133742;27;20206;-67
2023/10/12 01:39:55;;;;;;;9.57;5.93;;;14.20;99.90;;;;;;5133757;28;20226;-67
2023/10/12 01:42:24;;;;;;;13.63;6.00;;;14.20;99.90;;;;;;5133864;28;20191;-67
2023/10/12 01:44:52;;;;;;;10.33;5.90;;;14.20;99.90;;;;;;5133941;28;20195;-67
2023/10/12 01:47:19;;;;;;;11.17;6.07;;;14.30;99.90;;;;;;5133716;28;20244;-67
2023/10/12 01:49:48;;;;;;;11.07;5.57;;;14.30;99.90;;;;;;5134067;27;20226;-67
2023/10/12 01:52:17;;;;;;;7.87;5.63;;;14.30;99.90;;;;;;5138071;27;20195;-67
2023/10/12 01:54:48;;;;;;;10.77;5.90;;;14.30;99.90;;;;;;5137997;27;20286;-67
2023/10/12 01:57:18;;;;;;;8.03;5.40;;;14.30;99.90;;;;;;5137925;27;20198;-67
2023/10/12 01:59:44;;;;;;;10.83;6.07;;;14.50;99.90;;;;;;5137639;27;20218;-67
2023/10/12 02:02:14;;;;;;;10.13;5.60;;;14.40;99.90;;;;;;5137589;27;20259;-67
2023/10/12 02:04:42;;;;;;;14.87;5.57;;;14.30;99.90;;;;;;5137877;27;20289;-67
2023/10/12 02:07:10;;;;;;;10.83;6.30;;;14.30;99.90;;;;;;5137664;27;20658;-67
2023/10/12 02:09:37;;;;;;;11.50;5.73;;;14.40;99.90;;;;;;5137571;27;20202;-66
2023/10/12 02:12:11;;;;;;;17.67;6.40;;;14.40;99.90;;;;;;5137558;27;20243;-67
2023/10/12 02:14:39;;;;;;;12.43;6.23;;;14.30;99.90;;;;;;5137496;27;20195;-66
2023/10/12 02:17:06;;;;;;;10.70;5.73;;;14.30;99.90;;;;;;5137401;27;20550;-66
2023/10/12 02:19:38;;;;;;;12.60;5.40;;;14.20;99.90;;;;;;5137345;27;20619;-66
2023/10/12 02:22:05;;;;;;;10.57;5.20;;;14.00;99.90;;;;;;5137348;27;20749;-67
2023/10/12 02:24:35;;;;;;;14.83;5.90;;;13.90;99.90;;;;;;5137294;27;20199;-67
2023/10/12 02:27:03;;;;;;;10.57;5.63;;;14.00;99.90;;;;;;5137280;27;20309;-67
2023/10/12 02:29:35;;;;;;;9.73;6.10;;;14.00;99.90;;;;;;5137404;27;20206;-67
2023/10/12 02:32:16;;;;;;;9.03;5.43;;;13.90;99.90;;;;;;5137386;27;20195;-67
2023/10/12 02:34:43;;;;;;;11.90;6.50;;;13.80;99.90;;;;;;5137046;27;20262;-67
2023/10/12 02:37:19;;;;;;;10.03;5.90;;;13.80;99.90;;;;;;5137096;27;20191;-67
2023/10/12 02:39:46;;;;;;;7.67;5.77;;;13.70;99.90;;;;;;5136886;27;20218;-67
2023/10/12 02:42:17;;;;;;;11.93;5.37;;;13.80;99.90;;;;;;5137169;27;20190;-67
2023/10/12 02:45:08;;;;;;;10.03;6.20;;;13.70;99.90;;;;;;5137077;27;20227;-67
2023/10/12 02:47:40;;;;;;;10.30;6.30;;;13.80;99.90;;;;;;5136888;27;20296;-67
2023/10/12 02:50:20;;;;;;;10.90;5.67;;;13.70;99.90;;;;;;5136761;27;20195;-67
2023/10/12 02:52:49;;;;;;;11.30;6.30;;;13.70;99.90;;;;;;5136835;27;20642;-67
2023/10/12 02:55:25;;;;;;;11.37;6.00;;;13.50;99.90;;;;;;5136736;27;20199;-67
2023/10/12 02:57:55;;;;;;;12.80;5.60;;;13.60;99.90;;;;;;5136725;27;20195;-67
2023/10/12 03:00:33;;;;;;;9.33;6.10;;;13.60;99.90;;;;;;5136467;27;20227;-67
2023/10/12 03:03:07;;;;;;;7.90;5.60;;;13.70;99.90;;;;;;5136016;27;20255;-67
2023/10/12 03:05:45;;;;;;;11.23;5.77;;;13.70;99.90;;;;;;5136698;27;20206;-67
2023/10/12 03:08:15;;;;;;;10.57;6.00;;;13.70;99.90;;;;;;5136686;27;20711;-67
2023/10/12 03:11:00;;;;;;;11.93;6.30;;;13.70;99.90;;;;;;5136460;27;20203;-67
2023/10/12 03:13:34;;;;;;;11.17;7.40;;;13.60;99.90;;;;;;5136590;27;20205;-67
2023/10/12 03:16:05;;;;;;;8.30;6.37;;;13.70;99.90;;;;;;5136292;27;20195;-67
2023/10/12 03:18:32;;;;;;;13.30;5.90;;;13.90;99.90;;;;;;5136302;27;20202;-67
2023/10/12 03:21:04;;;;;;;9.43;6.30;;;13.90;99.90;;;;;;5136129;27;20226;-67
2023/10/12 03:23:33;;;;;;;12.77;5.83;;;13.90;99.90;;;;;;5136316;27;20228;-67
2023/10/12 03:26:04;;;;;;;9.27;6.10;;;14.00;99.90;;;;;;5136263;27;20217;-67
2023/10/12 03:28:36;;;;;;;12.13;6.47;;;14.10;99.90;;;;;;5136117;27;20222;-67
2023/10/12 03:31:15;;;;;;;8.10;6.30;;;14.00;99.90;;;;;;5136222;27;20245;-67
2023/10/12 03:33:46;;;;;;;9.97;6.60;;;14.10;99.90;;;;;;5135886;27;20697;-67
2023/10/12 03:36:22;;;;;;;10.37;5.80;;;14.00;99.90;;;;;;5136216;27;20199;-67
2023/10/12 03:39:07;;;;;;;9.87;5.70;;;13.90;99.90;;;;;;5135921;27;20198;-67
2023/10/12 03:41:46;;;;;;;12.77;6.50;;;13.90;99.90;;;;;;5135645;27;20555;-67
2023/10/12 03:44:18;;;;;;;14.03;6.63;;;13.90;99.90;;;;;;5135566;27;20230;-67
2023/10/12 03:46:56;;;;;;;10.00;6.53;;;13.90;99.90;;;;;;5135800;27;20202;-68
2023/10/12 03:49:31;;;;;;;11.73;6.57;;;13.90;99.90;;;;;;5135760;27;20632;-67
2023/10/12 03:51:59;;;;;;;12.13;7.07;;;13.80;99.90;;;;;;5135582;27;20195;-67
2023/10/12 03:54:30;;;;;;;9.63;6.27;;;13.90;99.90;;;;;;5135494;27;20227;-67
2023/10/12 03:57:06;;;;;;;7.93;5.80;;;13.80;99.90;;;;;;5135674;27;20293;-67
2023/10/12 03:59:44;;;;;;;10.50;5.93;;;13.80;99.90;;;;;;5135449;27;20194;-67
2023/10/12 04:02:15;;;;;;;12.33;6.97;;;13.80;99.90;;;;;;5135461;27;20222;-67
2023/10/12 04:07:37;;;;;;;12.90;7.00;;;13.70;99.90;;;;;;5133410;27;20201;-68
2023/10/12 04:10:14;;;;;;;10.57;7.23;;;13.60;99.90;;;;;;5135203;27;20682;-67
2023/10/12 04:12:53;;;;;;;10.50;6.90;;;13.40;99.90;;;;;;5135105;27;20282;-67
2023/10/12 04:15:27;;;;;;;11.70;7.10;;;13.20;99.90;;;;;;5134004;27;20199;-67
2023/10/12 04:17:59;;;;;;;10.30;7.07;;;13.10;99.90;;;;;;5134735;27;20195;-67
2023/10/12 04:20:27;;;;;;;11.23;7.40;;;13.00;99.90;;;;;;5134990;27;20225;-67
2023/10/12 04:25:49;;;;;;;13.70;7.30;;;12.90;99.90;;;;;;5097515;27;20668;-67
2023/10/12 04:28:22;;;;;;;13.30;7.33;;;12.80;99.90;;;;;;5134905;27;20256;-67
2023/10/12 04:33:50;;;;;;;11.23;6.97;;;12.70;99.90;;;;;;5134685;27;20337;-66
2023/10/12 04:36:24;;;;;;;10.30;7.30;;;12.70;99.90;;;;;;5134865;27;20199;-67
2023/10/12 04:39:02;;;;;;;11.07;8.10;;;12.80;99.90;;;;;;5134652;27;20295;-67
2023/10/12 04:41:47;;;;;;;12.77;7.73;;;12.80;99.90;;;;;;5134528;27;20250;-67
2023/10/12 04:44:35;;;;;;;13.23;9.07;;;12.80;99.90;;;;;;5134645;27;20604;-68
2023/10/12 04:47:05;;;;;;;18.70;9.13;;;13.10;99.90;;;;;;5134382;27;20715;-69
2023/10/12 04:52:24;;;;;;;11.77;8.20;;;13.10;99.90;;;;;;5135644;27;20194;-69
2023/10/12 04:55:06;;;;;;;12.47;8.03;;;12.90;99.90;;;;;;5118221;27;20747;-68
2023/10/12 04:57:37;;;;;;;13.13;8.50;;;12.80;99.90;;;;;;5135777;27;20199;-67
2023/10/12 05:00:24;;;;;;;12.03;8.57;;;12.60;99.90;;;;;;5134720;27;20219;-67
2023/10/12 05:03:21;;;;;;;15.27;8.37;;;12.50;99.90;;;;;;5135145;27;20198;-67
2023/10/12 05:06:03;;;;;;;13.67;8.50;;;12.40;99.90;;;;;;5136469;27;20717;-69
2023/10/12 05:08:31;;;;;;;12.20;8.27;;;12.40;99.90;;;;;;5134193;27;20203;-67
2023/10/12 05:10:58;;;;;;;11.63;8.87;;;12.30;99.90;;;;;;5134072;27;20226;-68
2023/10/12 05:13:25;;;;;;;16.03;8.80;;;12.30;99.90;;;;;;5133771;27;20191;-66
2023/10/12 05:16:05;;;;;;;11.43;8.53;;;12.40;99.90;;;;;;5133559;27;20604;-66
2023/10/12 05:18:32;;;;;;;15.83;7.83;;;12.40;99.90;;;;;;5134108;27;20191;-68
2023/10/12 05:21:01;;;;;;;13.53;8.63;;;12.40;99.90;;;;;;5133888;27;20258;-68
2023/10/12 05:23:29;;;;;;;11.87;8.90;;;12.50;99.90;;;;;;5133939;27;20267;-68
2023/10/12 05:26:09;;;;;;;13.33;8.23;;;12.50;99.90;;;;;;5133646;27;20194;-67
2023/10/12 05:28:37;;;;;;;15.77;9.13;;;12.50;99.90;;;;;;5134068;27;20218;-67
2023/10/12 05:31:10;;;;;;;14.63;8.60;;;12.60;99.90;;;;;;5140657;27;20190;-67
2023/10/12 05:34:00;;;;;;;13.70;8.53;;;12.60;99.90;;;;;;5144154;27;20257;-67
2023/10/12 05:36:32;;;;;;;14.13;8.53;;;12.60;99.90;;;;;;5137426;27;20662;-67
2023/10/12 05:39:13;;;;;;;15.17;8.33;;;12.70;99.90;;;;;;5133979;28;20199;-67
2023/10/12 05:41:41;;;;;;;13.47;8.50;;;12.70;99.90;;;;;;5134235;28;20222;-68
2023/10/12 05:44:13;;;;;;;10.40;8.03;;;12.70;99.90;;;;;;5133990;28;20206;-67
2023/10/12 05:46:41;;;;;;;16.73;8.07;;;12.70;99.90;;;;;;5133840;28;20234;-68
2023/10/12 05:49:12;;;;;;;11.67;9.27;;;12.80;99.90;;;;;;5134436;28;20535;-67
2023/10/12 05:51:43;;;;;;;16.97;9.87;;;12.70;99.90;;;;;;5134396;28;20194;-67
2023/10/12 05:54:15;;;;;;;18.37;11.17;;;12.80;99.90;;;;;;5133937;28;20248;-68
2023/10/12 05:56:43;;;;;;;16.87;10.87;;;12.80;99.90;;;;;;5133545;28;20195;-67
2023/10/12 05:59:12;;;;;;;11.20;9.33;;;12.90;99.90;;;;;;5133427;28;20199;-68
2023/10/12 06:01:39;;;;;;;20.37;10.80;;;12.90;99.90;;;;;;5133114;28;20222;-67
2023/10/12 06:04:07;;;;;;;13.63;9.40;;;12.90;99.90;;;;;;5133724;28;20191;-67
2023/10/12 06:06:35;;;;;;;17.97;10.00;;;13.00;99.90;;;;;;5133464;28;20199;-67
2023/10/12 06:09:07;;;;;;;15.10;10.33;;;13.00;99.90;;;;;;5133425;28;20201;-67
2023/10/12 06:11:33;;;;;;;17.63;10.37;;;13.10;99.90;;;;;;5133227;28;20203;-67
2023/10/12 06:14:00;;;;;;;18.30;10.23;;;13.10;99.90;;;;;;5133383;28;20286;-67
2023/10/12 06:16:28;;;;;;;16.07;9.53;;;13.20;99.90;;;;;;5133274;28;20270;-67
2023/10/12 06:18:54;;;;;;;19.90;9.30;;;13.20;99.90;;;;;;5133230;28;20730;-67
2023/10/12 06:21:24;;;;;;;15.07;9.93;;;13.30;99.90;;;;;;5133020;28;20328;-67
2023/10/12 06:23:51;;;;;;;15.90;9.13;;;13.30;99.90;;;;;;5133630;28;20202;-67
2023/10/12 06:26:29;;;;;;;17.83;8.40;;;13.30;99.90;;;;;;5133280;28;20286;-67
2023/10/12 06:28:57;;;;;;;13.47;9.03;;;13.40;99.90;;;;;;5133115;28;20198;-67
2023/10/12 06:31:25;;;;;;;14.97;8.37;;;13.40;99.90;;;;;;5133242;28;20290;-67
2023/10/12 06:33:53;;;;;;;17.23;8.27;;;13.90;99.90;;;;;;5133224;28;20234;-67
2023/10/12 06:36:37;;;;;;;16.90;7.93;;;14.10;99.90;;;;;;5133257;27;20195;-66
2023/10/12 06:41:59;;;;;;;14.70;7.40;;;14.60;99.90;;;;;;5136083;27;20626;-67
2023/10/12 06:44:28;;;;;;;8.17;6.50;;;14.90;99.90;;;;;;5130373;27;20248;-67
2023/10/12 06:46:57;;;;;;;10.47;7.00;;;15.00;99.90;;;;;;5120959;27;20191;-67
2023/10/12 06:49:28;;;;;;;11.83;6.13;;;15.20;99.90;;;;;;5116097;28;20279;-67
2023/10/12 06:52:00;;;;;;;13.10;6.80;;;15.40;99.90;;;;;;5116165;28;20593;-67
2023/10/12 06:54:39;;;;;;;11.57;6.27;;;15.50;99.90;;;;;;5116177;28;20211;-67
2023/10/12 07:00:17;;;;;;;13.30;6.38;;;15.70;99.90;;;;;;5115377;28;20206;-69
2023/10/12 07:02:45;;;;;;;10.07;6.80;;;15.80;99.90;;;;;;5115716;28;20620;-66
2023/10/12 07:05:11;;;;;;;12.75;7.07;;;15.80;99.90;;;;;;5116064;28;20191;-67
2023/10/12 07:07:41;;;;;;;16.48;6.68;;;15.90;99.90;;;;;;5115597;28;20658;-68
2023/10/12 07:10:27;;;;;;;9.57;6.63;;;16.00;99.90;;;;;;5115784;28;20566;-67
2023/10/12 07:12:59;;;;;;;10.25;6.40;;;16.10;99.90;;;;;;5115916;28;20257;-68
2023/10/12 07:15:32;;;;;;;11.38;5.85;;;16.20;99.90;;;;;;5115977;28;20246;-68
2023/10/12 07:18:05;;;;;;;10.38;6.32;;;16.30;99.90;;;;;;5115755;28;20192;-68
2023/10/12 07:20:42;;;;;;;15.70;6.68;;;16.50;99.90;;;;;;5115543;28;20578;-68
2023/10/12 07:23:15;;;;;;;10.05;5.82;;;16.50;99.90;;;;;;5134442;27;20198;-68
2023/10/12 07:25:43;;;;;;;9.63;6.00;;;16.70;99.90;;;;;;5136309;27;20611;-68
2023/10/12 07:28:18;;;;;;;15.30;6.30;;;16.80;99.90;;;;;;5136147;27;20255;-69
2023/10/12 07:31:04;;;;;;;10.10;6.10;;;16.80;99.90;;;;;;5136205;27;20201;-68
2023/10/12 07:33:32;;;;;;;13.75;6.43;;;16.90;99.90;;;;;;5135929;27;20690;-67
2023/10/12 07:36:08;;;;;;;8.48;6.18;;;17.10;99.90;;;;;;5136158;27;20570;-67
2023/10/12 07:38:36;;;;;;;9.07;6.93;;;17.30;99.90;;;;;;5136269;27;20294;-67
2023/10/12 07:41:04;;;;;;;11.15;6.90;;;17.40;99.90;;;;;;5135841;27;20280;-67
2023/10/12 07:43:33;;;;;;;13.90;8.68;;;17.50;99.90;;;;;;5136328;27;20191;-67
2023/10/12 07:46:13;;;;;;;17.08;9.90;;;17.60;99.90;;;;;;5136011;27;20702;-67
2023/10/12 07:48:44;;;;;;;20.63;9.70;;;17.70;99.90;;;;;;5135660;27;20198;-67
2023/10/12 07:51:24;;;;;;;15.95;9.23;;;17.90;99.90;;;;;;5135963;27;20243;-68
2023/10/12 07:53:57;;;;;;;14.85;9.02;;;18.00;99.90;;;;;;5135663;27;20209;-70
2023/10/12 07:56:26;;;;;;;12.13;6.63;;;18.10;99.90;;;;;;5135763;27;20209;-67
2023/10/12 07:58:57;;;;;;;13.80;7.38;;;18.10;99.90;;;;;;5135808;27;20191;-67
2023/10/12 08:01:39;;;;;;;11.60;6.47;;;18.20;99.90;;;;;;5135645;27;20225;-68
2023/10/12 08:04:19;;;;;;;11.13;6.25;;;18.10;99.90;;;;;;5137514;27;20248;-85
2023/10/12 08:06:47;;;;;;;11.93;6.28;;;18.20;99.90;;;;;;5135371;27;20247;-68
2023/10/12 08:09:34;;;;;;;14.48;5.85;;;18.20;99.90;;;;;;5135315;27;20282;-68
2023/10/12 08:12:23;;;;;;;10.90;6.38;;;18.10;99.90;;;;;;5135386;27;20203;-67
2023/10/12 08:14:53;;;;;;;10.85;6.18;;;18.30;99.90;;;;;;5134767;27;20199;-67
2023/10/12 08:17:29;;;;;;;8.57;6.20;;;18.20;99.90;;;;;;5134640;27;20195;-68
2023/10/12 08:19:57;;;;;;;12.20;6.72;;;18.30;99.90;;;;;;5135302;27;20199;-67
2023/10/12 08:22:26;;;;;;;9.50;6.13;;;18.30;99.90;;;;;;5135018;27;20697;-68
2023/10/12 08:24:56;;;;;;;11.10;6.38;;;18.30;99.90;;;;;;5135373;27;20208;-67
2023/10/12 08:27:24;;;;;;;10.48;5.95;;;18.30;99.90;;;;;;5135372;27;20244;-68
2023/10/12 08:30:02;;;;;;;9.85;6.05;;;18.40;99.90;;;;;;5135204;27;20195;-68
2023/10/12 08:32:36;;;;;;;10.23;5.90;;;18.50;99.90;;;;;;5134834;27;20242;-68
2023/10/12 08:35:11;;;;;;;11.65;6.10;;;18.50;99.90;;;;;;5134957;27;20202;-68
2023/10/12 08:38:09;;;;;;;9.70;6.38;;;18.50;99.90;;;;;;5134900;27;20199;-68
2023/10/12 08:40:27;;;;;;;11.48;6.13;;;18.60;99.90;;;;;;5134542;27;20248;-68
2023/10/12 08:43:06;;;;;;;11.65;6.40;;;18.60;99.90;;;;;;5134603;27;20230;-68
2023/10/12 08:45:37;;;;;;;11.43;6.38;;;18.60;99.90;;;;;;5134726;27;20195;-68
2023/10/12 08:48:05;;;;;;;11.15;6.18;;;18.70;99.90;;;;;;5134833;27;20665;-68
2023/10/12 08:53:27;;;;;;;14.18;6.65;;;18.80;99.90;;;;;;5113440;27;20194;-68
2023/10/12 08:55:54;;;;;;;8.57;6.10;;;18.90;99.90;;;;;;5134646;27;20539;-68
2023/10/12 08:58:39;;;;;;;10.15;5.85;;;19.00;99.90;;;;;;5134498;27;20248;-68
2023/10/12 09:01:10;;;;;;;11.88;6.00;;;19.00;99.90;;;;;;5133863;27;20236;-67
2023/10/12 09:03:44;;;;;;;10.57;6.10;;;19.10;99.90;;;;;;5134470;27;20195;-67
2023/10/12 09:08:51;;;;;;;12.75;6.68;;;19.20;99.90;;;;;;5130540;27;20281;-67
2023/10/12 09:11:19;;;;;;;11.52;6.28;;;19.40;99.90;;;;;;5134107;27;20205;-67
2023/10/12 09:13:46;;;;;;;12.73;8.30;;;19.50;99.90;;;;;;5133956;27;20650;-67
2023/10/12 09:16:17;;;;;;;14.90;6.95;;;19.80;99.90;;;;;;5133943;27;20264;-67
2023/10/12 09:18:46;;;;;;;10.95;6.32;;;19.90;99.90;;;;;;5134025;27;20199;-69
2023/10/12 09:21:23;;;;;;;11.57;6.10;;;20.10;99.90;;;;;;5133835;27;20211;-67
2023/10/12 09:23:52;;;;;;;13.98;6.30;;;19.90;99.90;;;;;;5133830;27;20194;-67
2023/10/12 09:26:30;;;;;;;11.88;6.53;;;19.90;99.90;;;;;;5134030;27;20202;-67
2023/10/12 09:29:21;;;;;;;8.95;6.45;;;20.00;99.90;;;;;;5134006;27;20248;-67
2023/10/12 09:34:43;;;;;;;15.73;6.13;;;19.90;99.90;;;;;;5110867;28;20226;-67
2023/10/12 09:37:16;;;;;;;13.90;6.65;;;19.90;99.90;;;;;;5119709;27;20197;-67
2023/10/12 09:39:45;;;;;;;11.63;6.13;;;20.00;99.90;;;;;;5133413;27;20646;-67
2023/10/12 09:42:22;;;;;;;9.85;6.20;;;20.10;99.90;;;;;;5132881;28;20267;-67
2023/10/12 09:44:53;;;;;;;9.50;6.20;;;20.10;99.90;;;;;;5133212;28;20596;-67
2023/10/12 09:47:25;;;;;;;15.27;7.13;;;20.20;99.90;;;;;;5130280;27;20248;-67
2023/10/12 09:49:59;;;;;;;12.63;6.80;;;20.20;99.90;;;;;;5133284;28;20201;-67
2023/10/12 09:52:42;;;;;;;11.32;6.30;;;20.30;99.90;;;;;;5133175;28;20282;-67
2023/10/12 09:55:14;;;;;;;11.90;6.63;;;20.30;99.90;;;;;;5133436;27;20588;-67
2023/10/12 09:57:49;;;;;;;11.02;6.22;;;20.30;99.90;;;;;;5132929;27;20219;-67
2023/10/12 10:00:28;;;;;;;12.45;6.40;;;20.50;99.90;;;;;;5133188;27;20767;-67
2023/10/12 10:02:59;;;;;;;10.13;6.53;;;20.50;99.90;;;;;;5132868;28;20226;-67
2023/10/12 10:05:51;;;;;;;14.38;6.47;;;20.60;99.90;;;;;;5133103;28;20195;-67
2023/10/12 10:08:18;;;;;;;10.23;5.85;;;20.60;99.90;;;;;;5132587;28;20191;-67
2023/10/12 10:10:45;;;;;;;10.38;6.03;;;20.50;99.90;;;;;;5133799;27;20199;-67
2023/10/12 10:13:39;;;;;;;10.00;6.22;;;20.50;99.90;;;;;;5137175;27;20191;-67
2023/10/12 10:16:09;;;;;;;11.70;5.82;;;20.40;99.90;;;;;;5137687;27;20281;-69
2023/10/12 10:18:46;;;;;;;10.75;6.35;;;20.50;99.90;;;;;;5137575;27;20199;-68
2023/10/12 10:21:14;;;;;;;12.27;6.20;;;20.40;99.90;;;;;;5137329;27;20194;-68
2023/10/12 10:23:48;;;;;;;11.65;6.18;;;20.50;99.90;;;;;;5137448;27;20202;-68
2023/10/12 10:26:20;;;;;;;13.30;6.00;;;20.70;99.90;;;;;;5137138;27;20267;-68
2023/10/12 10:28:54;;;;;;;11.30;6.05;;;20.70;99.90;;;;;;5137530;27;20195;-68
2023/10/12 10:31:26;;;;;;;10.20;6.45;;;20.70;99.90;;;;;;5137344;27;20286;-68
2023/10/12 10:33:57;;;;;;;14.73;6.22;;;20.50;99.90;;;;;;5137207;27;20233;-68
2023/10/12 10:36:27;;;;;;;11.13;5.63;;;20.40;99.90;;;;;;5137021;27;20580;-68
2023/10/12 10:38:55;;;;;;;13.30;6.28;;;20.40;99.90;;;;;;5137194;27;20259;-68
2023/10/12 10:41:38;;;;;;;10.85;5.68;;;20.50;99.90;;;;;;5136888;27;20276;-67
2023/10/12 10:44:08;;;;;;;13.05;6.20;;;20.70;99.90;;;;;;5136976;27;20653;-67
2023/10/12 10:46:40;;;;;;;12.32;6.35;;;21.10;99.70;;;;;;5136962;27;20194;-67
2023/10/12 10:49:09;;;;;;;10.93;6.18;;;21.20;99.60;;;;;;5136640;27;20199;-68
2023/10/12 10:51:40;;;;;;;11.57;6.03;;;21.60;99.40;;;;;;5136600;27;20650;-67
2023/10/12 10:54:12;;;;;;;13.55;6.28;;;21.70;98.70;;;;;;5136672;27;20256;-67
2023/10/12 10:56:47;;;;;;;10.77;6.20;;;21.90;98.60;;;;;;5136854;27;20583;-68
2023/10/12 10:59:18;;;;;;;12.70;6.30;;;22.00;97.60;;;;;;5136765;27;20198;-68
2023/10/12 11:01:48;;;;;;;15.13;6.38;;;22.20;97.60;;;;;;5136192;27;20257;-68
2023/10/12 11:04:41;;;;;;;15.40;6.32;;;22.30;96.90;;;;;;5136697;27;20256;-68
2023/10/12 11:07:12;;;;;;;10.63;6.13;;;22.00;97.30;;;;;;5136579;27;20199;-68
2023/10/12 11:12:31;;;;;;;12.82;6.40;;;22.50;96.40;;;;;;5136759;27;20198;-68
2023/10/12 11:15:00;;;;;;;12.32;6.28;;;22.20;96.30;;;;;;5136478;27;20195;-68
2023/10/12 11:17:30;;;;;;;12.98;6.30;;;22.20;96.70;;;;;;5136495;27;20191;-67
2023/10/12 11:19:58;;;;;;;9.93;6.43;;;22.20;96.60;;;;;;5136113;27;20237;-67
2023/10/12 11:22:25;;;;;;;13.18;6.40;;;22.10;96.30;;;;;;5135653;27;20309;-68
2023/10/12 11:24:53;;;;;;;14.50;6.65;;;22.10;96.20;;;;;;5130623;27;20245;-68
2023/10/12 11:27:31;;;;;;;14.10;6.45;;;21.90;96.90;;;;;;5120511;27;20253;-69
2023/10/12 11:30:00;;;;;;;13.18;6.50;;;21.80;96.70;;;;;;5123848;27;20254;-69
2023/10/12 11:32:28;;;;;;;14.40;6.38;;;21.60;96.70;;;;;;5135981;27;20302;-69
2023/10/12 11:34:59;;;;;;;15.73;6.75;;;21.60;96.80;;;;;;5135281;27;20267;-69
2023/10/12 11:37:28;;;;;;;11.30;5.97;;;21.60;96.90;;;;;;5135631;27;20286;-67
2023/10/12 11:39:54;;;;;;;11.55;6.45;;;21.40;96.70;;;;;;5135970;27;20198;-69
2023/10/12 11:42:21;;;;;;;10.25;6.20;;;21.40;97.20;;;;;;5135747;27;20218;-68
2023/10/12 11:44:51;;;;;;;12.10;6.65;;;21.40;96.90;;;;;;5135872;27;20191;-68
2023/10/12 11:47:39;;;;;;;9.23;6.05;;;21.50;97.40;;;;;;5135624;27;20557;-68
2023/10/12 11:50:11;;;;;;;11.93;6.45;;;21.30;97.20;;;;;;5135920;27;20240;-68
2023/10/12 11:52:40;;;;;;;11.52;6.80;;;21.30;97.70;;;;;;5135670;27;20209;-67
2023/10/12 11:55:18;;;;;;;14.50;6.30;;;21.10;97.30;;;;;;5135642;27;20191;-68
2023/10/12 11:57:48;;;;;;;12.38;6.28;;;20.90;98.50;;;;;;5135343;27;20226;-68
2023/10/12 12:00:21;;;;;;;13.35;6.63;;;20.60;98.20;;;;;;5135743;27;20213;-68
2023/10/12 12:02:48;;;;;;;12.98;6.47;;;20.50;98.60;;;;;;5133596;27;20225;-67
2023/10/12 12:05:16;;;;;;;14.05;6.82;;;20.50;98.80;;;;;;5120713;27;20199;-66
2023/10/12 12:07:43;;;;;;;13.60;6.72;;;20.40;98.80;;;;;;5114384;28;20195;-66
2023/10/12 12:10:13;;;;;;;11.05;6.05;;;20.40;99.40;;;;;;5114829;27;20195;-67
2023/10/12 12:12:40;;;;;;;10.68;6.57;;;20.40;99.90;;;;;;5114023;28;20319;-67
2023/10/12 12:15:07;;;;;;;11.13;6.72;;;20.30;99.90;;;;;;5132302;27;20276;-67
2023/10/12 12:17:35;;;;;;;12.02;6.45;;;20.20;99.90;;;;;;5134750;27;20595;-67
2023/10/12 12:20:05;;;;;;;15.93;7.10;;;20.20;99.90;;;;;;5134213;27;20202;-67
2023/10/12 12:22:42;;;;;;;13.27;6.70;;;20.00;99.90;;;;;;5134473;27;20241;-66
2023/10/12 12:25:21;;;;;;;11.98;6.40;;;19.70;99.90;;;;;;5134547;27;20202;-67
2023/10/12 12:27:49;;;;;;;11.60;6.88;;;19.60;99.90;;;;;;5134519;27;20653;-67
2023/10/12 12:30:28;;;;;;;12.18;7.30;;;19.50;99.90;;;;;;5133931;27;20673;-67
2023/10/12 12:33:00;;;;;;;17.75;7.18;;;19.50;99.90;;;;;;5134089;27;20190;-67
2023/10/12 12:35:28;;;;;;;13.93;7.43;;;19.50;99.90;;;;;;5133145;27;20198;-67
2023/10/12 12:38:00;;;;;;;12.00;6.90;;;19.40;99.90;;;;;;5134370;27;20278;-67
2023/10/12 12:40:30;;;;;;;9.95;6.57;;;19.40;99.90;;;;;;5133742;27;20646;-67
2023/10/12 12:42:57;;;;;;;12.40;7.60;;;19.40;99.90;;;;;;5133768;27;20279;-67
2023/10/12 12:45:24;;;;;;;10.50;7.35;;;19.50;99.90;;;;;;5133902;27;20195;-67
2023/10/12 12:47:50;;;;;;;15.63;7.05;;;19.60;99.90;;;;;;5134163;27;20217;-67
2023/10/12 12:50:17;;;;;;;13.73;7.65;;;19.60;99.90;;;;;;5134175;27;20207;-68
2023/10/12 12:52:46;;;;;;;12.93;7.47;;;19.50;99.90;;;;;;5133724;27;20195;-68
2023/10/12 12:55:17;;;;;;;11.15;7.13;;;19.50;99.90;;;;;;5134244;27;20195;-68
2023/10/12 12:57:45;;;;;;;14.43;7.30;;;19.30;99.90;;;;;;5133734;27;20304;-68
2023/10/12 13:00:19;;;;;;;13.30;7.60;;;19.30;99.90;;;;;;5133999;27;20218;-67
2023/10/12 13:02:46;;;;;;;13.65;8.02;;;19.30;99.90;;;;;;5133367;27;20219;-68
2023/10/12 13:05:14;;;;;;;13.18;8.18;;;19.20;99.90;;;;;;5133890;27;20290;-67
2023/10/12 13:07:41;;;;;;;13.63;8.10;;;19.10;99.90;;;;;;5133910;27;20202;-67
2023/10/12 13:10:11;;;;;;;15.15;7.90;;;18.90;99.90;;;;;;5121248;27;21129;-67
2023/10/12 13:12:40;;;;;;;11.80;8.00;;;18.90;99.90;;;;;;5113338;28;20207;-67
2023/10/12 13:15:09;;;;;;;9.85;6.72;;;18.90;99.90;;;;;;5123121;27;20220;-68
2023/10/12 13:17:36;;;;;;;15.65;7.97;;;18.80;99.90;;;;;;5133712;27;20201;-67
2023/10/12 13:20:04;;;;;;;11.93;8.00;;;18.70;99.90;;;;;;5132931;27;20191;-67
2023/10/12 13:22:30;;;;;;;13.50;7.47;;;18.60;99.90;;;;;;5133254;27;20257;-67
2023/10/12 13:24:57;;;;;;;11.18;7.45;;;18.60;99.90;;;;;;5132950;27;20263;-67
2023/10/12 13:27:27;;;;;;;13.35;8.10;;;18.60;99.90;;;;;;5133173;27;20737;-67
2023/10/12 13:30:00;;;;;;;14.60;7.93;;;18.60;99.90;;;;;;5133007;27;20555;-68
2023/10/12 13:32:26;;;;;;;13.80;7.50;;;18.60;99.90;;;;;;5133377;27;20198;-68